SE-0025 weather

Flykälens flygfält
Jämtlande län, Sweden

Public forecast

Using degrees Celsius for public forecast. Weather courtesy of forecast.io.

Closest aviation weather report (METAR) to Flykälens flygfält

Closest report is Åre Östersund Airport, 42.9 nm (79.4 km) SSW. Retrieved 2020/04/04 17:50 UTC (20 minutes ago):

ESNZ 041750Z AUTO 26013KT 9999 NCD M03/M09 Q1016

Closest aviation forecast (TAF) to Flykälens flygfält

Forecast is more than 12 hours old.

Closest forecast is Kramfors Sollefteå Airport, 88.2 nm (163.3 km) ESE. Retrieved 2015/10/08 12:00 UTC (4 years ago):

TAF ESNK 081130Z 0812/0824 18005KT CAVOK PROB40 0820/0824 4000 BR